createdAt,value
2022-11-18T00:01:38.176Z,8.40
2022-11-18T00:04:04.930Z,8.40
2022-11-18T00:06:31.816Z,8.30
2022-11-18T00:09:00.153Z,8.20
2022-11-18T00:11:45.925Z,8.40
2022-11-18T00:14:23.579Z,8.20
2022-11-18T00:17:01.108Z,8.20
2022-11-18T00:19:28.936Z,8.00
2022-11-18T00:21:55.771Z,8.10
2022-11-18T00:24:22.842Z,8.10
2022-11-18T00:26:49.627Z,8.20
2022-11-18T00:29:16.969Z,8.20
2022-11-18T00:31:44.413Z,8.40
2022-11-18T00:34:16.310Z,8.30
2022-11-18T00:36:44.088Z,8.20
2022-11-18T00:39:16.851Z,8.20
2022-11-18T00:42:03.225Z,8.20
2022-11-18T00:44:29.926Z,8.30
2022-11-18T00:46:56.639Z,8.40
2022-11-18T00:49:23.826Z,8.30
2022-11-18T00:51:50.672Z,8.30
2022-11-18T00:54:17.669Z,8.30
2022-11-18T00:56:44.592Z,8.30
2022-11-18T00:59:11.376Z,8.30
2022-11-18T01:01:38.148Z,8.30
2022-11-18T01:04:05.060Z,8.30
2022-11-18T01:06:31.961Z,8.40
2022-11-18T01:08:58.621Z,8.40
2022-11-18T01:11:44.485Z,8.30
2022-11-18T01:14:11.517Z,8.30
2022-11-18T01:16:38.346Z,8.30
2022-11-18T01:19:05.084Z,8.30
2022-11-18T01:21:31.843Z,8.30
2022-11-18T01:23:58.526Z,8.30
2022-11-18T01:26:25.277Z,8.20
2022-11-18T01:28:56.628Z,8.30
2022-11-18T01:31:23.379Z,8.00
2022-11-18T01:33:50.076Z,8.10
2022-11-18T01:36:25.558Z,8.00
2022-11-18T01:38:52.298Z,8.20
2022-11-18T01:41:21.195Z,8.20
2022-11-18T01:43:48.140Z,8.30
2022-11-18T01:46:14.804Z,8.20
2022-11-18T01:48:41.701Z,8.20
2022-11-18T01:51:14.809Z,8.20
2022-11-18T01:53:47.406Z,8.20
2022-11-18T01:56:22.009Z,8.20
2022-11-18T01:58:58.993Z,8.00
2022-11-18T02:01:25.734Z,8.20
2022-11-18T02:03:53.540Z,8.20
2022-11-18T02:06:21.121Z,8.10
2022-11-18T02:08:49.382Z,8.10
2022-11-18T02:11:34.954Z,8.10
2022-11-18T02:14:08.396Z,8.20
2022-11-18T02:17:16.369Z,8.20
2022-11-18T02:19:57.677Z,8.20
2022-11-18T02:22:30.019Z,8.00
2022-11-18T02:25:17.197Z,8.00
2022-11-18T02:28:14.636Z,8.00
2022-11-18T02:30:58.105Z,8.10
2022-11-18T02:33:40.023Z,8.00
2022-11-18T02:36:16.099Z,8.10
2022-11-18T02:38:46.177Z,8.00
2022-11-18T02:41:25.054Z,7.90
2022-11-18T02:43:55.689Z,8.00
2022-11-18T02:46:33.039Z,8.00
2022-11-18T02:49:02.904Z,8.00
2022-11-18T02:51:32.596Z,8.10
2022-11-18T02:54:05.340Z,8.00
2022-11-18T02:56:34.419Z,8.00
2022-11-18T02:59:01.415Z,8.00
2022-11-18T03:01:31.218Z,8.00
2022-11-18T03:03:58.129Z,8.00
2022-11-18T03:06:29.876Z,8.00
2022-11-18T03:09:02.550Z,7.90
2022-11-18T03:11:33.193Z,8.00
2022-11-18T03:14:15.004Z,8.00
2022-11-18T03:17:14.510Z,8.10
2022-11-18T03:19:53.098Z,8.10
2022-11-18T03:22:33.092Z,8.00
2022-11-18T03:25:19.942Z,8.10
2022-11-18T03:28:25.036Z,8.00
2022-11-18T03:31:04.963Z,8.10
2022-11-18T03:33:37.478Z,8.00
2022-11-18T03:36:08.320Z,8.00
2022-11-18T03:38:40.347Z,8.10
2022-11-18T03:41:11.847Z,8.00
2022-11-18T03:43:45.567Z,8.10
2022-11-18T03:46:29.053Z,8.10
2022-11-18T03:48:57.775Z,8.00
2022-11-18T03:51:31.815Z,8.10
2022-11-18T03:54:05.675Z,8.00
2022-11-18T03:56:38.121Z,8.00
2022-11-18T03:59:17.600Z,8.00
2022-11-18T04:01:58.540Z,8.00
2022-11-18T04:04:27.580Z,8.00
2022-11-18T04:07:21.438Z,8.00
2022-11-18T04:10:08.700Z,8.00
2022-11-18T04:12:42.584Z,7.90
2022-11-18T04:15:10.049Z,7.90
2022-11-18T04:17:36.713Z,8.00
2022-11-18T04:20:03.584Z,7.90
2022-11-18T04:22:30.295Z,8.00
2022-11-18T04:24:57.045Z,7.90
2022-11-18T04:27:23.707Z,7.90
2022-11-18T04:29:50.463Z,7.90
2022-11-18T04:32:17.139Z,7.90
2022-11-18T04:34:44.017Z,7.90
2022-11-18T04:37:10.742Z,7.80
2022-11-18T04:39:37.448Z,7.70
2022-11-18T04:42:04.287Z,7.80
2022-11-18T04:44:32.712Z,7.80
2022-11-18T04:47:01.943Z,7.80
2022-11-18T04:49:29.828Z,7.80
2022-11-18T04:51:57.316Z,7.70
2022-11-18T04:54:25.408Z,7.50
2022-11-18T04:56:52.761Z,7.40
2022-11-18T04:59:24.833Z,7.20
2022-11-18T05:01:52.258Z,7.10
2022-11-18T05:04:21.898Z,7.00
2022-11-18T05:06:48.965Z,7.00
2022-11-18T05:09:17.163Z,7.00
2022-11-18T05:12:03.229Z,7.00
2022-11-18T05:14:30.450Z,7.10
2022-11-18T05:16:59.231Z,7.10
2022-11-18T05:19:26.345Z,7.10
2022-11-18T05:21:53.733Z,7.20
2022-11-18T05:24:20.715Z,7.20
2022-11-18T05:26:47.418Z,7.20
2022-11-18T05:29:14.207Z,7.30
2022-11-18T05:31:40.959Z,7.30
2022-11-18T05:34:07.711Z,7.40
2022-11-18T05:36:34.446Z,7.50
2022-11-18T05:39:01.674Z,7.40
2022-11-18T05:41:47.345Z,7.50
2022-11-18T05:44:14.753Z,7.60
2022-11-18T05:46:41.770Z,7.60
2022-11-18T05:49:08.576Z,7.60
2022-11-18T05:51:35.711Z,7.50
2022-11-18T05:54:08.994Z,7.50
2022-11-18T05:56:41.848Z,7.60
2022-11-18T05:59:08.570Z,7.50
2022-11-18T06:01:59.381Z,7.60
2022-11-18T06:04:36.975Z,7.50
2022-11-18T06:07:10.811Z,7.60
2022-11-18T06:09:41.548Z,7.60
2022-11-18T06:12:09.092Z,7.60
2022-11-18T06:14:40.705Z,7.70
2022-11-18T06:17:14.510Z,7.70
2022-11-18T06:19:41.245Z,7.70
2022-11-18T06:22:09.595Z,7.70
2022-11-18T06:24:37.218Z,7.70
2022-11-18T06:27:04.325Z,7.70
2022-11-18T06:29:31.943Z,7.60
2022-11-18T06:31:58.613Z,7.70
2022-11-18T06:34:25.383Z,7.70
2022-11-18T06:36:52.277Z,7.90
2022-11-18T06:39:19.271Z,7.80
2022-11-18T06:41:46.173Z,7.70
2022-11-18T06:44:13.581Z,7.80
2022-11-18T06:46:55.534Z,7.70
2022-11-18T06:49:22.882Z,7.70
2022-11-18T06:51:49.669Z,7.80
2022-11-18T06:54:16.349Z,7.80
2022-11-18T06:56:43.083Z,7.80
2022-11-18T06:59:09.786Z,7.90
2022-11-18T07:01:39.495Z,7.90
2022-11-18T07:04:06.300Z,7.90
2022-11-18T07:06:35.603Z,7.80
2022-11-18T07:09:04.427Z,7.90
2022-11-18T07:11:31.181Z,7.90
2022-11-18T07:13:57.919Z,7.90
2022-11-18T07:16:26.446Z,7.90
2022-11-18T07:18:54.425Z,7.80
2022-11-18T07:21:24.186Z,7.90
2022-11-18T07:23:52.262Z,7.90
2022-11-18T07:26:20.368Z,7.90
2022-11-18T07:28:47.292Z,8.00
2022-11-18T07:31:19.159Z,8.00
2022-11-18T07:33:47.243Z,8.10
2022-11-18T07:36:15.051Z,8.10
2022-11-18T07:38:42.053Z,8.10
2022-11-18T07:41:14.241Z,8.00
2022-11-18T07:43:42.835Z,8.00
2022-11-18T07:46:12.620Z,7.90
2022-11-18T07:48:40.094Z,7.90
2022-11-18T07:51:07.893Z,7.90
2022-11-18T07:53:35.437Z,7.90
2022-11-18T07:56:02.719Z,7.90
2022-11-18T07:58:29.881Z,8.00
2022-11-18T08:00:57.013Z,8.10
2022-11-18T08:03:28.233Z,8.10
2022-11-18T08:06:02.554Z,8.10
2022-11-18T08:08:29.406Z,8.10
2022-11-18T08:11:00.842Z,8.20
2022-11-18T08:13:28.078Z,8.20
2022-11-18T08:15:55.956Z,8.20
2022-11-18T08:18:23.259Z,8.30
2022-11-18T08:20:50.265Z,8.60
2022-11-18T08:23:17.424Z,8.30
2022-11-18T08:25:45.455Z,8.40
2022-11-18T08:28:13.917Z,8.50
2022-11-18T08:30:41.391Z,8.30
2022-11-18T08:33:08.433Z,8.30
2022-11-18T08:35:35.169Z,8.10
2022-11-18T08:38:01.987Z,8.20
2022-11-18T08:40:28.773Z,8.20
2022-11-18T08:42:55.513Z,8.10
2022-11-18T08:45:22.206Z,8.20
2022-11-18T08:47:48.932Z,8.10
2022-11-18T08:50:15.853Z,8.10
2022-11-18T08:52:42.607Z,8.10
2022-11-18T08:55:09.490Z,8.10
2022-11-18T08:57:36.238Z,8.10
2022-11-18T09:00:05.433Z,8.00
2022-11-18T09:02:32.186Z,8.00
2022-11-18T09:04:58.942Z,7.90
2022-11-18T09:07:25.757Z,7.80
2022-11-18T09:09:52.560Z,7.80
2022-11-18T09:12:19.336Z,7.80
2022-11-18T09:17:33.045Z,7.90
2022-11-18T09:19:59.848Z,7.90
2022-11-18T09:22:26.643Z,7.90
2022-11-18T09:24:53.615Z,8.00
2022-11-18T09:27:20.296Z,7.90
2022-11-18T09:29:47.020Z,8.00
2022-11-18T09:32:14.650Z,8.00
2022-11-18T09:34:41.374Z,8.20
2022-11-18T09:37:08.149Z,8.00
2022-11-18T09:39:38.348Z,8.00
2022-11-18T09:42:36.874Z,8.10
2022-11-18T09:45:13.524Z,8.00
2022-11-18T09:47:42.199Z,8.10
2022-11-18T09:50:47.361Z,8.30
2022-11-18T09:53:02.263Z,8.10
2022-11-18T09:55:29.530Z,8.40
2022-11-18T09:57:58.802Z,8.40
2022-11-18T10:00:28.522Z,8.40
2022-11-18T10:03:08.023Z,8.40
2022-11-18T10:05:48.066Z,8.40
2022-11-18T10:08:39.401Z,8.50
2022-11-18T10:11:11.884Z,8.50
2022-11-18T10:14:09.690Z,8.40
2022-11-18T10:17:05.362Z,8.30
2022-11-18T10:19:41.028Z,8.30
2022-11-18T10:22:45.308Z,8.30
2022-11-18T10:25:15.123Z,8.10
2022-11-18T10:27:44.981Z,8.10
2022-11-18T10:30:26.579Z,8.10
2022-11-18T10:33:05.102Z,8.20
2022-11-18T10:35:34.926Z,8.40
2022-11-18T10:38:17.991Z,8.50
2022-11-18T10:41:06.817Z,8.40
2022-11-18T10:43:50.426Z,8.30
2022-11-18T10:46:28.773Z,8.20
2022-11-18T10:49:17.211Z,8.20
2022-11-18T10:51:49.641Z,8.20
2022-11-18T10:54:21.827Z,8.20
2022-11-18T10:56:58.364Z,8.20
2022-11-18T10:59:51.307Z,8.10
2022-11-18T11:02:34.386Z,8.20
2022-11-18T11:05:25.298Z,8.30
2022-11-18T11:08:34.576Z,8.30
2022-11-18T11:10:57.602Z,8.40
2022-11-18T11:13:27.719Z,8.40
2022-11-18T11:15:58.334Z,8.50
2022-11-18T11:18:41.542Z,8.90
2022-11-18T11:21:13.383Z,8.60
2022-11-18T11:23:41.894Z,8.70
2022-11-18T11:29:34.734Z,8.70
2022-11-18T11:32:04.346Z,8.80
2022-11-18T11:34:46.138Z,8.80
2022-11-18T11:37:49.266Z,8.80
2022-11-18T11:40:34.857Z,8.90
2022-11-18T11:43:39.499Z,8.90
2022-11-18T11:46:30.889Z,8.80
2022-11-18T11:49:19.201Z,8.70
2022-11-18T11:51:53.877Z,8.50
2022-11-18T11:54:35.682Z,8.50
2022-11-18T11:57:18.684Z,8.40
2022-11-18T12:00:03.326Z,8.40
2022-11-18T12:02:59.549Z,8.40
2022-11-18T12:05:35.725Z,8.30
2022-11-18T12:08:20.003Z,8.40
2022-11-18T12:11:12.330Z,8.30
2022-11-18T12:13:42.574Z,8.10
2022-11-18T12:16:22.081Z,8.10
2022-11-18T12:19:07.349Z,8.00
2022-11-18T12:21:46.364Z,8.10
2022-11-18T12:24:31.883Z,8.10
2022-11-18T12:27:01.616Z,8.10
2022-11-18T12:29:36.239Z,8.10
2022-11-18T12:32:03.820Z,8.10
2022-11-18T12:34:44.541Z,8.20
2022-11-18T12:37:23.429Z,8.20
2022-11-18T12:40:01.041Z,8.10
2022-11-18T12:42:56.881Z,8.20
2022-11-18T12:45:42.024Z,8.20
2022-11-18T12:48:27.227Z,8.30
2022-11-18T12:51:02.382Z,8.40
2022-11-18T12:53:28.982Z,8.40
2022-11-18T12:55:57.464Z,8.40
2022-11-18T12:58:26.307Z,8.50
2022-11-18T13:01:13.419Z,8.70
2022-11-18T13:03:40.211Z,8.90
2022-11-18T13:06:26.729Z,8.80
2022-11-18T13:09:00.652Z,8.70
2022-11-18T13:11:44.761Z,8.70
2022-11-18T13:14:43.771Z,8.70
2022-11-18T13:17:46.520Z,8.90
2022-11-18T13:20:37.450Z,8.90
2022-11-18T13:23:28.769Z,9.00
2022-11-18T13:26:17.593Z,9.20
2022-11-18T13:28:50.339Z,9.30
2022-11-18T13:31:20.985Z,9.30
2022-11-18T13:33:48.141Z,9.60
2022-11-18T13:36:26.007Z,9.90
2022-11-18T13:39:06.637Z,10.20
2022-11-18T13:41:35.262Z,10.50
2022-11-18T13:44:18.114Z,10.50
2022-11-18T13:46:49.479Z,10.30
2022-11-18T13:49:21.869Z,11.10
2022-11-18T13:51:48.819Z,12.30
2022-11-18T13:54:22.154Z,13.60
2022-11-18T13:56:48.939Z,14.50
2022-11-18T13:59:22.310Z,15.60
2022-11-18T14:01:55.081Z,15.40
2022-11-18T14:04:25.438Z,14.90
2022-11-18T14:06:52.192Z,14.40
2022-11-18T14:09:30.894Z,13.60
2022-11-18T14:11:58.962Z,12.60
2022-11-18T14:14:34.777Z,11.70
2022-11-18T14:17:15.526Z,11.30
2022-11-18T14:19:42.947Z,10.90
2022-11-18T14:22:17.561Z,10.70
2022-11-18T14:24:53.424Z,10.50
2022-11-18T14:27:43.166Z,10.40
2022-11-18T14:30:30.967Z,10.20
2022-11-18T14:33:21.612Z,10.00
2022-11-18T14:35:58.439Z,9.80
2022-11-18T14:41:47.806Z,9.50
2022-11-18T14:44:15.153Z,9.20
2022-11-18T14:46:44.636Z,9.30
2022-11-18T14:49:15.545Z,9.30
2022-11-18T14:51:42.528Z,9.30
2022-11-18T14:54:13.922Z,9.20
2022-11-18T14:56:41.398Z,9.20
2022-11-18T14:59:14.500Z,9.00
2022-11-18T15:01:42.181Z,9.00
2022-11-18T15:04:09.463Z,9.00
2022-11-18T15:06:36.618Z,9.00
2022-11-18T15:09:06.709Z,9.10
2022-11-18T15:11:33.968Z,9.10
2022-11-18T15:14:00.955Z,9.00
2022-11-18T15:16:30.407Z,9.00
2022-11-18T15:19:00.614Z,9.00
2022-11-18T15:21:28.114Z,8.70
2022-11-18T15:23:54.874Z,8.60
2022-11-18T15:26:26.258Z,8.60
2022-11-18T15:28:55.108Z,8.60
2022-11-18T15:31:23.112Z,8.60
2022-11-18T15:33:51.251Z,8.40
2022-11-18T15:36:26.384Z,8.30
2022-11-18T15:38:54.585Z,8.20
2022-11-18T15:41:26.795Z,8.10
2022-11-18T15:43:55.743Z,8.00
2022-11-18T15:46:24.721Z,7.90
2022-11-18T15:48:54.959Z,7.90
2022-11-18T15:51:22.394Z,7.90
2022-11-18T15:53:49.226Z,7.90
2022-11-18T15:56:19.155Z,7.90
2022-11-18T15:58:51.890Z,7.90
2022-11-18T16:01:19.076Z,8.00
2022-11-18T16:03:45.866Z,8.00
2022-11-18T16:06:12.820Z,8.00
2022-11-18T16:08:39.888Z,8.00
2022-11-18T16:11:25.634Z,8.10
2022-11-18T16:13:52.671Z,8.00
2022-11-18T16:16:25.487Z,8.10
2022-11-18T16:18:59.706Z,8.00
2022-11-18T16:21:27.641Z,8.10
2022-11-18T16:23:58.871Z,8.10
2022-11-18T16:26:26.915Z,8.00
2022-11-18T16:28:54.248Z,8.00
2022-11-18T16:31:41.749Z,7.90
2022-11-18T16:34:18.991Z,7.90
2022-11-18T16:36:57.023Z,7.90
2022-11-18T16:39:26.338Z,8.00
2022-11-18T16:42:03.825Z,7.90
2022-11-18T16:44:34.955Z,7.90
2022-11-18T16:47:01.939Z,7.80
2022-11-18T16:49:28.747Z,7.70
2022-11-18T16:51:56.926Z,7.80
2022-11-18T16:54:27.844Z,7.80
2022-11-18T16:56:56.716Z,7.70
2022-11-18T16:59:25.382Z,7.60
2022-11-18T17:01:53.721Z,7.60
2022-11-18T17:04:21.232Z,7.50
2022-11-18T17:06:48.299Z,7.50
2022-11-18T17:09:18.164Z,7.50
2022-11-18T17:11:45.542Z,7.50
2022-11-18T17:14:12.512Z,7.40
2022-11-18T17:16:39.511Z,7.30
2022-11-18T17:19:11.598Z,7.30
2022-11-18T17:21:38.852Z,7.10
2022-11-18T17:24:06.528Z,7.20
2022-11-18T17:26:33.457Z,7.30
2022-11-18T17:29:00.401Z,7.30
2022-11-18T17:31:27.317Z,7.10
2022-11-18T17:33:55.389Z,7.20
2022-11-18T17:36:24.275Z,7.20
2022-11-18T17:38:52.860Z,7.20
2022-11-18T17:41:40.534Z,7.20
2022-11-18T17:44:09.077Z,7.00
2022-11-18T17:46:38.217Z,7.00
2022-11-18T17:49:10.641Z,7.10
2022-11-18T17:51:37.770Z,7.10
2022-11-18T17:54:04.921Z,7.10
2022-11-18T17:56:31.650Z,7.10
2022-11-18T17:58:58.525Z,7.00
2022-11-18T18:01:25.498Z,7.10
2022-11-18T18:03:52.337Z,7.00
2022-11-18T18:06:21.030Z,7.20
2022-11-18T18:08:47.755Z,7.10
2022-11-18T18:11:19.424Z,7.20
2022-11-18T18:14:05.109Z,7.20
2022-11-18T18:16:33.593Z,7.30
2022-11-18T18:19:02.212Z,7.20
2022-11-18T18:21:29.253Z,7.20
2022-11-18T18:23:56.067Z,7.20
2022-11-18T18:26:28.088Z,7.40
2022-11-18T18:28:58.713Z,7.20
2022-11-18T18:31:25.909Z,7.10
2022-11-18T18:33:52.695Z,7.50
2022-11-18T18:36:20.960Z,7.20
2022-11-18T18:38:47.796Z,7.20
2022-11-18T18:41:20.064Z,7.10
2022-11-18T18:43:47.464Z,7.10
2022-11-18T18:46:30.521Z,7.30
2022-11-18T18:49:15.702Z,7.00
2022-11-18T18:51:43.307Z,7.10
2022-11-18T18:54:12.489Z,7.10
2022-11-18T18:56:39.383Z,7.00
2022-11-18T18:59:06.842Z,6.90
2022-11-18T19:01:34.181Z,7.00
2022-11-18T19:04:04.629Z,6.90
2022-11-18T19:06:58.829Z,6.90
2022-11-18T19:09:24.977Z,6.80
2022-11-18T19:12:10.955Z,6.90
2022-11-18T19:14:37.736Z,6.90
2022-11-18T19:17:09.969Z,6.90
2022-11-18T19:19:57.874Z,7.00
2022-11-18T19:22:25.434Z,7.00
2022-11-18T19:24:52.607Z,6.90
2022-11-18T19:27:20.404Z,6.90
2022-11-18T19:29:47.424Z,7.00
2022-11-18T19:32:14.331Z,7.00
2022-11-18T19:34:41.123Z,7.00
2022-11-18T19:37:07.887Z,7.00
2022-11-18T19:39:35.314Z,7.00
2022-11-18T19:42:02.502Z,7.00
2022-11-18T19:44:29.575Z,7.10
2022-11-18T19:46:56.285Z,7.10
2022-11-18T19:49:23.151Z,7.10
2022-11-18T19:51:50.075Z,7.10
2022-11-18T19:54:16.878Z,7.20
2022-11-18T19:56:43.586Z,7.10
2022-11-18T19:59:12.379Z,7.10
2022-11-18T20:01:39.880Z,7.00
2022-11-18T20:04:06.706Z,7.00
2022-11-18T20:06:35.897Z,6.90
2022-11-18T20:09:05.994Z,7.30
2022-11-18T20:11:32.722Z,6.80
2022-11-18T20:13:59.377Z,6.80
2022-11-18T20:16:26.117Z,6.80
2022-11-18T20:18:58.786Z,6.80
2022-11-18T20:21:27.086Z,6.80
2022-11-18T20:24:00.445Z,6.80
2022-11-18T20:26:47.701Z,6.80
2022-11-18T20:29:14.436Z,6.80
2022-11-18T20:31:41.342Z,6.90
2022-11-18T20:34:11.319Z,6.80
2022-11-18T20:36:38.138Z,6.80
2022-11-18T20:39:07.533Z,6.80
2022-11-18T20:41:36.530Z,6.80
2022-11-18T20:44:03.825Z,6.70
2022-11-18T20:46:30.654Z,6.70
2022-11-18T20:48:57.379Z,6.70
2022-11-18T20:51:26.478Z,6.70
2022-11-18T20:53:55.159Z,6.70
2022-11-18T20:56:23.950Z,6.80
2022-11-18T20:58:50.924Z,6.80
2022-11-18T21:01:22.334Z,6.80
2022-11-18T21:03:54.136Z,6.90
2022-11-18T21:06:22.631Z,6.90
2022-11-18T21:08:53.846Z,6.90
2022-11-18T21:11:20.517Z,6.90
2022-11-18T21:14:05.722Z,6.90
2022-11-18T21:16:32.400Z,6.90
2022-11-18T21:18:59.074Z,7.00
2022-11-18T21:21:44.277Z,7.00
2022-11-18T21:24:17.775Z,7.00
2022-11-18T21:26:46.553Z,6.90
2022-11-18T21:29:15.332Z,6.90
2022-11-18T21:31:43.466Z,6.90
2022-11-18T21:34:10.788Z,6.90
2022-11-18T21:36:43.025Z,6.90
2022-11-18T21:39:12.855Z,6.90
2022-11-18T21:41:40.448Z,7.00
2022-11-18T21:44:12.125Z,6.90
2022-11-18T21:46:40.823Z,7.00
2022-11-18T21:49:07.993Z,7.00
2022-11-18T21:51:35.187Z,6.90
2022-11-18T21:54:02.163Z,6.80
2022-11-18T21:56:33.362Z,6.90
2022-11-18T21:59:01.398Z,6.80
2022-11-18T22:01:31.201Z,6.90
2022-11-18T22:04:00.290Z,6.90
2022-11-18T22:06:32.669Z,6.90
2022-11-18T22:09:00.435Z,6.90
2022-11-18T22:11:28.359Z,6.90
2022-11-18T22:13:55.648Z,6.90
2022-11-18T22:16:24.143Z,6.70
2022-11-18T22:18:58.122Z,6.90
2022-11-18T22:21:27.314Z,7.00
2022-11-18T22:23:59.183Z,7.00
2022-11-18T22:26:26.173Z,6.90
2022-11-18T22:28:54.723Z,6.80
2022-11-18T22:31:23.060Z,6.70
2022-11-18T22:33:53.780Z,6.70
2022-11-18T22:36:22.589Z,6.40
2022-11-18T22:38:49.608Z,6.30
2022-11-18T22:41:40.264Z,6.40
2022-11-18T22:44:08.639Z,6.50
2022-11-18T22:46:36.737Z,6.60
2022-11-18T22:49:04.501Z,6.60
2022-11-18T22:51:31.410Z,6.60
2022-11-18T22:54:22.924Z,6.70
2022-11-18T22:56:44.882Z,6.70
2022-11-18T22:59:14.395Z,6.70
2022-11-18T23:01:41.208Z,6.70
2022-11-18T23:04:08.157Z,6.70
2022-11-18T23:06:35.070Z,6.80
2022-11-18T23:09:02.114Z,6.80
2022-11-18T23:11:47.674Z,6.70
2022-11-18T23:14:14.495Z,6.70
2022-11-18T23:16:42.845Z,6.70
2022-11-18T23:19:15.602Z,6.70
2022-11-18T23:21:43.645Z,6.70
2022-11-18T23:24:12.201Z,6.70
2022-11-18T23:26:39.302Z,6.60
2022-11-18T23:29:06.178Z,6.60
2022-11-18T23:31:33.306Z,6.60
2022-11-18T23:34:00.778Z,6.50
2022-11-18T23:36:28.140Z,6.50
2022-11-18T23:38:55.012Z,6.50
2022-11-18T23:41:22.353Z,6.40
2022-11-18T23:43:49.594Z,6.40
2022-11-18T23:46:17.974Z,6.40
2022-11-18T23:48:45.784Z,6.40
2022-11-18T23:51:14.043Z,6.40
2022-11-18T23:53:41.291Z,6.30
2022-11-18T23:56:14.009Z,6.30
2022-11-18T23:58:42.402Z,6.30
